createdAt,value
2018-06-14T00:00:09.635Z,3.10
2018-06-14T00:02:40.543Z,3.07
2018-06-14T00:05:10.511Z,3.30
2018-06-14T00:07:45.071Z,4.00
2018-06-14T00:10:13.967Z,3.93
2018-06-14T00:12:52.442Z,4.07
2018-06-14T00:15:21.338Z,3.33
2018-06-14T00:17:50.251Z,4.37
2018-06-14T00:20:26.503Z,3.90
2018-06-14T00:23:00.955Z,3.60
2018-06-14T00:25:29.832Z,4.13
2018-06-14T00:28:00.610Z,3.33
2018-06-14T00:30:33.234Z,3.40
2018-06-14T00:33:02.127Z,3.13
2018-06-14T00:35:30.890Z,3.40
2018-06-14T00:38:07.194Z,4.20
2018-06-14T00:40:35.934Z,3.63
2018-06-14T00:43:04.803Z,3.67
2018-06-14T00:45:36.942Z,3.73
2018-06-14T00:48:13.079Z,4.23
2018-06-14T00:50:41.901Z,4.47
2018-06-14T00:53:18.614Z,3.63
2018-06-14T00:55:48.398Z,3.50
2018-06-14T00:58:21.602Z,4.20
2018-06-14T01:00:58.094Z,3.80
2018-06-14T01:03:32.698Z,4.17
2018-06-14T01:06:01.561Z,4.13
2018-06-14T01:08:30.550Z,3.83
2018-06-14T01:11:03.266Z,3.70
2018-06-14T01:13:35.374Z,3.43
2018-06-14T01:16:08.171Z,4.30
2018-06-14T01:18:40.155Z,4.20
2018-06-14T01:21:08.946Z,3.77
2018-06-14T01:23:43.310Z,4.60
2018-06-14T01:26:13.222Z,4.10
2018-06-14T01:28:43.020Z,3.83
2018-06-14T01:31:15.362Z,4.50
2018-06-14T01:33:49.150Z,3.97
2018-06-14T01:36:18.998Z,4.27
2018-06-14T01:38:49.815Z,4.10
2018-06-14T01:41:26.110Z,4.67
2018-06-14T01:43:58.982Z,3.97
2018-06-14T01:46:28.778Z,4.40
2018-06-14T01:48:57.610Z,3.77
2018-06-14T01:51:27.554Z,4.53
2018-06-14T01:54:07.258Z,4.77
2018-06-14T01:56:47.158Z,4.37
2018-06-14T01:59:20.478Z,4.17
2018-06-14T02:01:49.383Z,4.13
2018-06-14T02:04:20.266Z,4.00
2018-06-14T02:06:54.092Z,4.10
2018-06-14T02:09:29.594Z,3.97
2018-06-14T02:12:09.231Z,4.50
2018-06-14T02:14:40.119Z,4.37
2018-06-14T02:17:08.922Z,4.77
2018-06-14T02:19:57.398Z,4.70
2018-06-14T02:22:38.550Z,4.00
2018-06-14T02:25:08.370Z,4.83
2018-06-14T02:27:37.218Z,3.97
2018-06-14T02:30:08.119Z,5.20
2018-06-14T02:32:42.810Z,4.63
2018-06-14T02:35:21.960Z,5.00
2018-06-14T02:37:58.726Z,4.40
2018-06-14T02:40:27.607Z,4.57
2018-06-14T02:42:56.502Z,4.57
2018-06-14T02:45:27.322Z,4.10
2018-06-14T02:47:57.119Z,5.00
2018-06-14T02:50:25.938Z,5.10
2018-06-14T02:52:54.850Z,4.17
2018-06-14T02:55:28.132Z,4.10
2018-06-14T02:57:59.946Z,4.70
2018-06-14T03:00:28.815Z,5.40
2018-06-14T03:03:00.888Z,5.07
2018-06-14T03:05:41.012Z,4.70
2018-06-14T03:08:09.827Z,4.40
2018-06-14T03:10:55.007Z,4.87
2018-06-14T03:13:23.955Z,5.23
2018-06-14T03:15:54.463Z,4.70
2018-06-14T03:18:23.238Z,5.40
2018-06-14T03:20:53.855Z,5.50
2018-06-14T03:23:22.578Z,6.33
2018-06-14T03:25:56.078Z,4.70
2018-06-14T03:28:32.589Z,5.00
2018-06-14T03:31:08.361Z,5.10
2018-06-14T03:33:42.345Z,5.40
2018-06-14T03:36:12.216Z,5.63
2018-06-14T03:38:41.046Z,5.20
2018-06-14T03:41:11.870Z,5.80
2018-06-14T03:43:46.338Z,5.23
2018-06-14T03:46:27.171Z,5.00
2018-06-14T03:49:07.709Z,5.50
2018-06-14T03:51:38.465Z,6.23
2018-06-14T03:54:07.329Z,5.10
2018-06-14T03:56:38.157Z,5.70
2018-06-14T03:59:12.753Z,5.60
2018-06-14T04:01:41.565Z,5.57
2018-06-14T04:04:10.478Z,5.30
2018-06-14T04:06:40.463Z,5.40
2018-06-14T04:09:10.753Z,4.33
2018-06-14T04:11:40.625Z,5.30
2018-06-14T04:14:09.462Z,4.00
2018-06-14T04:16:43.550Z,5.20
2018-06-14T04:22:10.133Z,5.20
2018-06-14T04:24:43.234Z,4.53
2018-06-14T04:27:20.535Z,5.60
2018-06-14T04:29:49.413Z,5.50
2018-06-14T04:32:30.398Z,5.23
2018-06-14T04:34:59.254Z,4.90
2018-06-14T04:37:51.117Z,5.50
2018-06-14T04:40:32.522Z,4.57
2018-06-14T04:43:06.161Z,4.80
2018-06-14T04:46:00.083Z,5.03
2018-06-14T04:48:28.914Z,4.47
2018-06-14T04:50:57.725Z,4.90
2018-06-14T04:53:26.518Z,5.27
2018-06-14T04:55:57.425Z,5.53
2018-06-14T04:58:26.214Z,4.57
2018-06-14T05:01:08.572Z,4.57
2018-06-14T05:03:37.730Z,5.00
2018-06-14T05:06:06.518Z,4.63
2018-06-14T05:08:36.325Z,4.63
2018-06-14T05:11:05.130Z,5.43
2018-06-14T05:13:46.040Z,5.23
2018-06-14T05:16:14.913Z,5.00
2018-06-14T05:18:45.838Z,5.17
2018-06-14T05:21:14.624Z,4.90
2018-06-14T05:23:46.798Z,4.47
2018-06-14T05:26:16.566Z,5.00
2018-06-14T05:28:45.374Z,4.80
2018-06-14T05:31:15.194Z,5.07
2018-06-14T05:33:50.562Z,4.60
2018-06-14T05:36:20.526Z,4.83
2018-06-14T05:38:53.154Z,4.30
2018-06-14T05:41:32.302Z,4.50
2018-06-14T05:44:08.158Z,4.63
2018-06-14T05:46:37.974Z,4.50
2018-06-14T05:49:07.878Z,4.50
2018-06-14T05:51:37.662Z,4.43
2018-06-14T05:54:06.430Z,4.63
2018-06-14T05:56:35.250Z,5.10
2018-06-14T05:59:04.127Z,4.80
2018-06-14T06:01:32.935Z,4.50
2018-06-14T06:04:08.685Z,4.27
2018-06-14T06:06:39.534Z,4.07
2018-06-14T06:09:10.617Z,3.53
2018-06-14T06:11:39.698Z,4.80
2018-06-14T06:14:09.554Z,4.10
2018-06-14T06:19:11.410Z,4.40
2018-06-14T06:21:40.174Z,4.40
2018-06-14T06:24:08.980Z,4.70
2018-06-14T06:26:45.266Z,4.63
2018-06-14T06:32:09.572Z,4.23
2018-06-14T06:34:38.410Z,4.13
2018-06-14T06:37:09.170Z,3.80
2018-06-14T06:39:37.885Z,4.37
2018-06-14T06:42:09.697Z,4.73
2018-06-14T06:44:45.905Z,4.70
2018-06-14T06:47:15.662Z,4.10
2018-06-14T06:49:50.994Z,3.33
2018-06-14T06:52:31.746Z,3.43
2018-06-14T06:55:03.082Z,3.60
2018-06-14T06:57:31.930Z,3.40
2018-06-14T07:00:00.722Z,3.27
2018-06-14T07:02:35.826Z,3.40
2018-06-14T07:05:06.546Z,3.03
2018-06-14T07:07:42.170Z,3.87
2018-06-14T07:10:11.023Z,3.30
2018-06-14T07:12:41.873Z,2.77
2018-06-14T07:15:10.642Z,3.90
2018-06-14T07:17:45.350Z,3.47
2018-06-14T07:20:36.544Z,3.30
2018-06-14T07:23:10.462Z,3.17
2018-06-14T07:25:45.986Z,2.77
2018-06-14T07:28:26.934Z,3.30
2018-06-14T07:31:08.785Z,2.60
2018-06-14T07:33:49.831Z,2.40
2018-06-14T07:36:19.602Z,2.67
2018-06-14T07:39:06.049Z,2.60
2018-06-14T07:41:34.781Z,2.40
2018-06-14T07:44:10.221Z,3.30
2018-06-14T07:46:43.189Z,2.37
2018-06-14T07:49:11.934Z,2.50
2018-06-14T07:51:51.055Z,2.63
2018-06-14T07:54:26.186Z,2.80
2018-06-14T07:56:56.981Z,2.90
2018-06-14T07:59:30.537Z,2.60
2018-06-14T08:01:59.257Z,3.30
2018-06-14T08:04:51.257Z,2.70
2018-06-14T08:07:20.993Z,2.43
2018-06-14T08:10:01.765Z,2.70
2018-06-14T08:12:40.998Z,2.20
2018-06-14T08:15:11.741Z,2.17
2018-06-14T08:17:41.468Z,1.90
2018-06-14T08:20:11.192Z,2.20
2018-06-14T08:22:39.749Z,2.53
2018-06-14T08:25:10.397Z,2.50
2018-06-14T08:27:59.385Z,2.30
2018-06-14T08:30:33.805Z,3.77
2018-06-14T08:33:02.689Z,2.80
2018-06-14T08:35:32.473Z,2.83
2018-06-14T08:38:01.309Z,2.67
2018-06-14T08:40:35.572Z,2.50
2018-06-14T08:43:11.357Z,2.23
2018-06-14T08:45:40.125Z,1.90
2018-06-14T08:48:09.997Z,2.50
2018-06-14T08:50:44.553Z,2.70
2018-06-14T08:53:13.325Z,2.87
2018-06-14T08:55:47.981Z,2.73
2018-06-14T08:58:37.681Z,3.00
2018-06-14T09:01:11.125Z,3.67
2018-06-14T09:03:39.857Z,3.00
2018-06-14T09:06:10.616Z,2.50
2018-06-14T09:08:39.433Z,3.10
2018-06-14T09:11:10.290Z,2.63
2018-06-14T09:13:39.037Z,3.10
2018-06-14T09:16:09.809Z,2.73
2018-06-14T09:18:43.693Z,2.40
2018-06-14T09:21:13.510Z,3.00
2018-06-14T09:23:43.360Z,3.00
2018-06-14T09:26:24.148Z,2.50
2018-06-14T09:29:03.057Z,2.67
2018-06-14T09:31:31.788Z,3.20
2018-06-14T09:34:00.610Z,2.63
2018-06-14T09:36:34.164Z,2.50
2018-06-14T09:39:09.768Z,2.20
2018-06-14T09:41:40.098Z,2.63
2018-06-14T09:44:10.904Z,2.37
2018-06-14T09:46:41.758Z,2.17
2018-06-14T09:49:13.972Z,3.00
2018-06-14T09:51:48.536Z,2.57
2018-06-14T09:54:21.904Z,2.33
2018-06-14T09:56:50.664Z,1.60
2018-06-14T09:59:20.436Z,2.33
2018-06-14T10:02:00.011Z,2.77
2018-06-14T10:04:52.948Z,2.30
2018-06-14T10:07:21.816Z,1.73
2018-06-14T10:09:50.582Z,4.00
2018-06-14T10:12:19.356Z,1.73
2018-06-14T10:14:49.096Z,2.33
2018-06-14T10:17:18.922Z,2.40
2018-06-14T10:19:55.200Z,1.80
2018-06-14T10:22:30.045Z,3.37
2018-06-14T10:24:59.816Z,1.80
2018-06-14T10:27:36.084Z,1.83
2018-06-14T10:30:04.860Z,3.07
2018-06-14T10:32:56.408Z,1.63
2018-06-14T10:35:30.076Z,1.80
2018-06-14T10:38:01.889Z,1.50
2018-06-14T10:40:32.708Z,2.27
2018-06-14T10:43:04.000Z,2.10
2018-06-14T10:45:44.852Z,1.70
2018-06-14T10:48:19.073Z,2.17
2018-06-14T10:50:53.616Z,1.70
2018-06-14T10:53:23.464Z,1.83
2018-06-14T10:56:09.169Z,1.90
2018-06-14T10:58:58.560Z,2.10
2018-06-14T11:01:32.184Z,2.40
2018-06-14T11:04:05.640Z,12.13
2018-06-14T11:06:35.712Z,2.10
2018-06-14T11:09:08.038Z,1.87
2018-06-14T11:11:37.168Z,2.27
2018-06-14T11:14:08.320Z,2.00
2018-06-14T11:16:37.094Z,2.03
2018-06-14T11:19:05.884Z,1.80
2018-06-14T11:21:42.953Z,2.03
2018-06-14T11:24:15.565Z,2.30
2018-06-14T11:26:57.413Z,2.20
2018-06-14T11:29:44.349Z,2.17
2018-06-14T11:32:18.601Z,2.07
2018-06-14T11:34:48.172Z,2.17
2018-06-14T11:37:23.806Z,1.83
2018-06-14T11:39:53.692Z,2.07
2018-06-14T11:42:22.617Z,2.03
2018-06-14T11:44:51.517Z,2.10
2018-06-14T11:47:24.877Z,1.70
2018-06-14T11:49:54.701Z,2.00
2018-06-14T11:52:24.135Z,1.87
2018-06-14T11:54:57.181Z,1.97
2018-06-14T11:57:28.009Z,2.80
2018-06-14T11:59:57.800Z,2.43
2018-06-14T12:02:26.933Z,1.97
2018-06-14T12:04:55.801Z,1.87
2018-06-14T12:07:29.557Z,2.67
2018-06-14T12:09:58.341Z,1.90
2018-06-14T12:12:29.173Z,2.00
2018-06-14T12:15:00.460Z,2.00
2018-06-14T12:17:30.237Z,1.77
2018-06-14T12:20:07.165Z,2.10
2018-06-14T12:22:42.889Z,2.03
2018-06-14T12:25:11.648Z,1.67
2018-06-14T12:27:41.401Z,2.10
2018-06-14T12:30:10.237Z,1.97
2018-06-14T12:32:42.348Z,1.70
2018-06-14T12:35:11.129Z,1.73
2018-06-14T12:37:41.957Z,2.13
2018-06-14T12:40:11.672Z,1.67
2018-06-14T12:42:46.381Z,2.57
2018-06-14T12:45:15.136Z,1.63
2018-06-14T12:47:46.092Z,1.77
2018-06-14T12:50:26.716Z,2.10
2018-06-14T12:52:55.828Z,2.20
2018-06-14T12:55:34.624Z,2.37
2018-06-14T12:58:09.360Z,2.30
2018-06-14T13:00:42.728Z,2.77
2018-06-14T13:03:11.531Z,1.97
2018-06-14T13:05:41.292Z,1.70
2018-06-14T13:08:11.020Z,2.20
2018-06-14T13:11:02.798Z,2.07
2018-06-14T13:13:35.892Z,2.20
2018-06-14T13:16:10.521Z,2.13
2018-06-14T13:18:39.612Z,2.17
2018-06-14T13:21:11.832Z,1.83
2018-06-14T13:23:45.919Z,1.83
2018-06-14T13:26:14.708Z,2.40
2018-06-14T13:28:44.568Z,1.97
2018-06-14T13:31:13.340Z,2.00
2018-06-14T13:33:43.127Z,2.30
2018-06-14T13:36:11.912Z,1.90
2018-06-14T13:38:42.739Z,2.23
2018-06-14T13:41:11.483Z,1.83
2018-06-14T13:43:40.298Z,2.23
2018-06-14T13:46:11.092Z,1.87
2018-06-14T13:48:39.953Z,2.13
2018-06-14T13:51:12.159Z,2.10
2018-06-14T13:53:41.071Z,2.00
2018-06-14T13:56:10.931Z,3.27
2018-06-14T13:58:43.708Z,2.50
2018-06-14T14:01:12.503Z,2.10
2018-06-14T14:03:42.300Z,1.97
2018-06-14T14:06:11.135Z,2.30
2018-06-14T14:08:46.079Z,1.77
2018-06-14T14:11:33.203Z,2.67
2018-06-14T14:14:07.232Z,2.90
2018-06-14T14:16:41.263Z,2.77
2018-06-14T14:19:10.049Z,2.33
2018-06-14T14:21:59.635Z,2.03
2018-06-14T14:24:30.515Z,2.13
2018-06-14T14:27:01.307Z,2.20
2018-06-14T14:29:34.839Z,2.13
2018-06-14T14:32:08.683Z,2.20
2018-06-14T14:34:40.567Z,2.30
2018-06-14T14:37:11.388Z,2.43
2018-06-14T14:39:44.228Z,2.70
2018-06-14T14:42:13.024Z,2.40
2018-06-14T14:44:41.567Z,1.80
2018-06-14T14:47:11.039Z,2.13
2018-06-14T14:49:40.783Z,2.07
2018-06-14T14:52:09.555Z,2.50
2018-06-14T14:54:40.385Z,2.67
2018-06-14T14:57:11.335Z,1.87
2018-06-14T14:59:42.235Z,2.37
2018-06-14T15:02:13.017Z,2.37
2018-06-14T15:04:47.556Z,2.47
2018-06-14T15:07:17.323Z,2.60
2018-06-14T15:09:46.167Z,2.50
2018-06-14T15:12:18.556Z,2.27
2018-06-14T15:14:47.439Z,2.37
2018-06-14T15:17:20.088Z,2.80
2018-06-14T15:20:00.051Z,1.97
2018-06-14T15:22:38.627Z,2.10
2018-06-14T15:25:11.259Z,2.50
2018-06-14T15:27:44.315Z,2.30
2018-06-14T15:30:25.891Z,2.00
2018-06-14T15:32:54.371Z,2.00
2018-06-14T15:35:27.835Z,2.00
2018-06-14T15:37:56.587Z,1.77
2018-06-14T15:40:31.027Z,2.20
2018-06-14T15:43:01.604Z,2.60
2018-06-14T15:45:38.227Z,2.00
2018-06-14T15:48:11.967Z,2.03
2018-06-14T15:53:35.637Z,1.90
2018-06-14T15:56:22.419Z,2.20
2018-06-14T15:58:51.248Z,2.20
2018-06-14T16:01:25.491Z,2.03
2018-06-14T16:03:55.455Z,1.90
2018-06-14T16:06:26.171Z,1.77
2018-06-14T16:08:54.959Z,2.17
2018-06-14T16:11:23.675Z,1.97
2018-06-14T16:13:52.452Z,1.70
2018-06-14T16:16:23.575Z,2.03
2018-06-14T16:18:57.867Z,2.10
2018-06-14T16:21:27.624Z,1.90
2018-06-14T16:23:56.367Z,2.37
2018-06-14T16:26:27.117Z,2.13
2018-06-14T16:28:59.127Z,2.00
2018-06-14T16:31:27.873Z,2.07
2018-06-14T16:33:56.603Z,2.73
2018-06-14T16:36:28.355Z,2.00
2018-06-14T16:39:11.115Z,1.83
2018-06-14T16:41:45.479Z,1.50
2018-06-14T16:44:22.406Z,1.90
2018-06-14T16:46:52.139Z,2.50
2018-06-14T16:52:37.635Z,2.10
2018-06-14T16:55:08.343Z,2.17
2018-06-14T16:57:41.899Z,1.83
2018-06-14T17:00:11.663Z,2.30
2018-06-14T17:02:40.491Z,2.20
2018-06-14T17:05:12.459Z,1.77
2018-06-14T17:07:41.196Z,2.30
2018-06-14T17:10:21.967Z,2.47
2018-06-14T17:13:06.899Z,2.10
2018-06-14T17:15:35.642Z,1.93
2018-06-14T17:18:11.190Z,1.93
2018-06-14T17:20:51.002Z,2.03
2018-06-14T17:23:23.422Z,1.80
2018-06-14T17:25:58.214Z,1.93
2018-06-14T17:28:34.562Z,2.10
2018-06-14T17:31:04.343Z,2.37
2018-06-14T17:33:37.038Z,1.70
2018-06-14T17:36:05.978Z,2.40
2018-06-14T17:38:37.854Z,1.90
2018-06-14T17:41:12.239Z,2.27
2018-06-14T17:43:41.118Z,2.37
2018-06-14T17:46:11.008Z,2.20
2018-06-14T17:49:00.004Z,1.97
2018-06-14T17:51:30.734Z,2.40
2018-06-14T17:54:11.710Z,2.77
2018-06-14T17:56:59.154Z,2.40
2018-06-14T17:59:38.351Z,2.33
2018-06-14T18:02:19.250Z,2.20
2018-06-14T18:04:53.727Z,2.50
2018-06-14T18:07:23.571Z,2.20
2018-06-14T18:09:53.338Z,2.33
2018-06-14T18:12:32.098Z,2.40
2018-06-14T18:15:04.462Z,2.17
2018-06-14T18:17:34.057Z,2.17
2018-06-14T18:20:04.770Z,2.30
2018-06-14T18:22:41.886Z,2.30
2018-06-14T18:25:10.635Z,2.00
2018-06-14T18:27:39.406Z,2.43
2018-06-14T18:30:12.015Z,2.53
2018-06-14T18:32:41.823Z,2.60
2018-06-14T18:35:10.591Z,2.30
2018-06-14T18:40:33.255Z,2.23
2018-06-14T18:43:03.998Z,2.33
2018-06-14T18:45:38.691Z,2.50
2018-06-14T18:48:11.306Z,2.40
2018-06-14T18:50:45.299Z,2.77
2018-06-14T18:53:17.182Z,2.57
2018-06-14T18:55:45.950Z,2.80
2018-06-14T18:58:14.730Z,3.13
2018-06-14T19:00:49.382Z,2.73
2018-06-14T19:03:22.782Z,2.90
2018-06-14T19:05:55.873Z,2.90
2018-06-14T19:08:32.370Z,3.70
2018-06-14T19:11:12.606Z,2.80
2018-06-14T19:13:41.366Z,2.93
2018-06-14T19:16:10.178Z,3.10
2018-06-14T19:18:49.326Z,3.10
2018-06-14T19:21:18.183Z,3.97
2018-06-14T19:23:47.998Z,4.10
2018-06-14T19:26:20.039Z,3.60
2018-06-14T19:28:50.823Z,3.90
2018-06-14T19:31:20.602Z,3.10
2018-06-14T19:33:52.946Z,3.23
2018-06-14T19:36:23.694Z,4.20
2018-06-14T19:39:02.350Z,3.43
2018-06-14T19:41:40.502Z,4.20
2018-06-14T19:44:13.323Z,4.60
2018-06-14T19:46:44.187Z,4.00
2018-06-14T19:49:12.938Z,3.93
2018-06-14T19:51:42.678Z,3.60
2018-06-14T19:54:11.522Z,4.80
2018-06-14T19:56:51.362Z,4.13
2018-06-14T19:59:22.095Z,5.37
2018-06-14T20:01:51.989Z,4.83
2018-06-14T20:04:21.973Z,4.30
2018-06-14T20:06:50.818Z,4.93
2018-06-14T20:09:22.585Z,4.10
2018-06-14T20:11:55.918Z,4.10
2018-06-14T20:14:25.702Z,5.10
2018-06-14T20:16:54.510Z,4.70
2018-06-14T20:19:25.202Z,4.20
2018-06-14T20:21:58.402Z,3.93
2018-06-14T20:24:28.274Z,4.20
2018-06-14T20:26:59.050Z,4.37
2018-06-14T20:29:27.785Z,4.40
2018-06-14T20:31:57.566Z,5.07
2018-06-14T20:34:29.938Z,5.20
2018-06-14T20:37:04.668Z,5.07
2018-06-14T20:39:33.482Z,5.00
2018-06-14T20:42:02.394Z,5.10
2018-06-14T20:44:34.793Z,4.70
2018-06-14T20:47:03.881Z,4.90
2018-06-14T20:49:33.618Z,4.73
2018-06-14T20:52:02.414Z,4.90
2018-06-14T20:54:31.190Z,5.53
2018-06-14T20:57:00.031Z,4.50
2018-06-14T20:59:28.922Z,5.33
2018-06-14T21:01:57.777Z,5.00
2018-06-14T21:04:26.693Z,5.40
2018-06-14T21:06:57.591Z,5.50
2018-06-14T21:09:26.153Z,5.50
2018-06-14T21:12:05.430Z,4.37
2018-06-14T21:14:34.206Z,4.17
2018-06-14T21:17:03.733Z,4.33
2018-06-14T21:19:35.637Z,4.87
2018-06-14T21:22:08.701Z,4.70
2018-06-14T21:24:37.558Z,4.90
2018-06-14T21:27:07.274Z,5.50
2018-06-14T21:29:43.521Z,6.00
2018-06-14T21:32:13.305Z,5.10
2018-06-14T21:34:43.153Z,4.70
2018-06-14T21:37:12.777Z,4.93
2018-06-14T21:39:41.520Z,5.03
2018-06-14T21:42:14.078Z,4.50
2018-06-14T21:44:44.842Z,5.47
2018-06-14T21:47:14.670Z,4.97
2018-06-14T21:49:44.407Z,4.83
2018-06-14T21:52:13.245Z,4.17
2018-06-14T21:54:42.142Z,4.90
2018-06-14T21:57:11.886Z,5.30
2018-06-14T21:59:41.678Z,4.67
2018-06-14T22:02:11.470Z,4.30
2018-06-14T22:04:40.234Z,4.60
2018-06-14T22:07:13.102Z,4.60
2018-06-14T22:09:45.710Z,4.83
2018-06-14T22:12:14.475Z,4.93
2018-06-14T22:14:43.222Z,5.27
2018-06-14T22:17:13.963Z,4.83
2018-06-14T22:19:44.774Z,4.57
2018-06-14T22:22:13.277Z,5.47
2018-06-14T22:24:54.046Z,5.23
2018-06-14T22:27:24.798Z,5.20
2018-06-14T22:29:54.645Z,4.53
2018-06-14T22:32:24.610Z,4.50
2018-06-14T22:35:05.870Z,5.20
2018-06-14T22:37:35.661Z,4.93
2018-06-14T22:40:09.570Z,5.27
2018-06-14T22:42:41.646Z,3.97
2018-06-14T22:45:12.257Z,4.73
2018-06-14T22:47:40.954Z,5.13
2018-06-14T22:50:09.725Z,5.60
2018-06-14T22:52:53.855Z,5.80
2018-06-14T22:55:23.746Z,5.60
2018-06-14T22:57:53.573Z,5.67
2018-06-14T23:01:40.673Z,5.83
2018-06-14T23:04:11.638Z,5.47
2018-06-14T23:06:40.465Z,5.57
2018-06-14T23:10:23.361Z,6.10
2018-06-14T23:12:53.209Z,6.37
2018-06-14T23:15:26.285Z,5.83
2018-06-14T23:17:55.217Z,6.40
2018-06-14T23:20:26.053Z,6.40
2018-06-14T23:22:56.808Z,7.30
2018-06-14T23:25:27.441Z,6.10
2018-06-14T23:28:00.757Z,6.37
2018-06-14T23:30:33.161Z,6.50
2018-06-14T23:33:05.409Z,6.57
2018-06-14T23:35:34.257Z,6.93
2018-06-14T23:38:05.052Z,6.33
2018-06-14T23:40:33.852Z,5.43
2018-06-14T23:43:06.005Z,6.07
2018-06-14T23:45:34.877Z,6.33
2018-06-14T23:48:11.065Z,6.80
2018-06-14T23:50:43.633Z,6.33
2018-06-14T23:53:12.857Z,6.87
2018-06-14T23:55:51.784Z,5.67
2018-06-14T23:58:20.595Z,6.43
